sensor_id;sensor_type;location;lat;lon;timestamp;temperature;humidity
36990;DHT22;22898;52.102;5.776;2023-03-01T00:00:59;6.40;81.60
36990;DHT22;22898;52.102;5.776;2023-03-01T00:03:25;6.50;80.40
36990;DHT22;22898;52.102;5.776;2023-03-01T00:05:51;6.40;80.30
36990;DHT22;22898;52.102;5.776;2023-03-01T00:08:16;6.40;80.70
36990;DHT22;22898;52.102;5.776;2023-03-01T00:10:42;6.40;80.60
36990;DHT22;22898;52.102;5.776;2023-03-01T00:13:07;6.40;80.60
36990;DHT22;22898;52.102;5.776;2023-03-01T00:15:33;6.40;80.50
36990;DHT22;22898;52.102;5.776;2023-03-01T00:18:00;6.30;80.50
36990;DHT22;22898;52.102;5.776;2023-03-01T00:20:25;6.20;81.00
36990;DHT22;22898;52.102;5.776;2023-03-01T00:22:51;6.20;81.30
36990;DHT22;22898;52.102;5.776;2023-03-01T00:25:16;6.20;81.30
36990;DHT22;22898;52.102;5.776;2023-03-01T00:27:42;6.10;81.60
36990;DHT22;22898;52.102;5.776;2023-03-01T00:30:08;6.00;81.80
36990;DHT22;22898;52.102;5.776;2023-03-01T00:32:33;6.00;82.80
36990;DHT22;22898;52.102;5.776;2023-03-01T00:34:59;6.00;82.00
36990;DHT22;22898;52.102;5.776;2023-03-01T00:37:25;6.00;81.40
36990;DHT22;22898;52.102;5.776;2023-03-01T00:39:50;6.10;81.00
36990;DHT22;22898;52.102;5.776;2023-03-01T00:42:16;6.10;81.10
36990;DHT22;22898;52.102;5.776;2023-03-01T00:44:42;6.00;81.30
36990;DHT22;22898;52.102;5.776;2023-03-01T00:47:08;5.90;81.60
36990;DHT22;22898;52.102;5.776;2023-03-01T00:49:34;5.80;82.10
36990;DHT22;22898;52.102;5.776;2023-03-01T00:52:00;5.70;82.30
36990;DHT22;22898;52.102;5.776;2023-03-01T00:54:26;5.80;82.20
36990;DHT22;22898;52.102;5.776;2023-03-01T00:56:51;5.80;82.30
36990;DHT22;22898;52.102;5.776;2023-03-01T00:59:17;5.70;82.40
36990;DHT22;22898;52.102;5.776;2023-03-01T01:01:42;5.70;82.50
36990;DHT22;22898;52.102;5.776;2023-03-01T01:04:11;5.70;82.70
36990;DHT22;22898;52.102;5.776;2023-03-01T01:06:45;5.60;83.00
36990;DHT22;22898;52.102;5.776;2023-03-01T01:09:14;5.60;83.30
36990;DHT22;22898;52.102;5.776;2023-03-01T01:11:43;5.60;83.00
36990;DHT22;22898;52.102;5.776;2023-03-01T01:14:09;5.70;82.90
36990;DHT22;22898;52.102;5.776;2023-03-01T01:16:34;5.60;83.20
36990;DHT22;22898;52.102;5.776;2023-03-01T01:19:00;5.60;83.30
36990;DHT22;22898;52.102;5.776;2023-03-01T01:21:26;5.60;83.20
36990;DHT22;22898;52.102;5.776;2023-03-01T01:23:52;5.60;83.30
36990;DHT22;22898;52.102;5.776;2023-03-01T01:26:21;5.40;84.10
36990;DHT22;22898;52.102;5.776;2023-03-01T01:28:47;5.50;83.90
36990;DHT22;22898;52.102;5.776;2023-03-01T01:31:13;5.50;83.60
36990;DHT22;22898;52.102;5.776;2023-03-01T01:33:39;5.60;83.20
36990;DHT22;22898;52.102;5.776;2023-03-01T01:36:06;5.50;83.00
36990;DHT22;22898;52.102;5.776;2023-03-01T01:38:32;5.50;83.20
36990;DHT22;22898;52.102;5.776;2023-03-01T01:40:57;5.50;83.10
36990;DHT22;22898;52.102;5.776;2023-03-01T01:43:24;5.60;82.40
36990;DHT22;22898;52.102;5.776;2023-03-01T01:45:50;5.60;82.50
36990;DHT22;22898;52.102;5.776;2023-03-01T01:48:23;5.60;82.40
36990;DHT22;22898;52.102;5.776;2023-03-01T01:50:55;5.50;82.40
36990;DHT22;22898;52.102;5.776;2023-03-01T01:53:21;5.40;82.90
36990;DHT22;22898;52.102;5.776;2023-03-01T01:55:54;5.30;83.40
36990;DHT22;22898;52.102;5.776;2023-03-01T01:58:24;5.20;83.40
36990;DHT22;22898;52.102;5.776;2023-03-01T02:00:51;5.20;83.50
36990;DHT22;22898;52.102;5.776;2023-03-01T02:03:20;5.20;83.70
36990;DHT22;22898;52.102;5.776;2023-03-01T02:06:03;5.20;83.60
36990;DHT22;22898;52.102;5.776;2023-03-01T02:08:31;5.20;83.70
36990;DHT22;22898;52.102;5.776;2023-03-01T02:10:58;5.20;83.50
36990;DHT22;22898;52.102;5.776;2023-03-01T02:13:25;5.30;82.90
36990;DHT22;22898;52.102;5.776;2023-03-01T02:15:51;5.30;82.80
36990;DHT22;22898;52.102;5.776;2023-03-01T02:18:18;5.20;82.90
36990;DHT22;22898;52.102;5.776;2023-03-01T02:21:02;5.20;83.20
36990;DHT22;22898;52.102;5.776;2023-03-01T02:23:31;5.30;82.90
36990;DHT22;22898;52.102;5.776;2023-03-01T02:26:01;5.20;83.10
36990;DHT22;22898;52.102;5.776;2023-03-01T02:28:37;5.10;83.50
36990;DHT22;22898;52.102;5.776;2023-03-01T02:31:08;5.10;83.60
36990;DHT22;22898;52.102;5.776;2023-03-01T02:33:53;5.10;83.80
36990;DHT22;22898;52.102;5.776;2023-03-01T02:36:25;5.10;83.30
36990;DHT22;22898;52.102;5.776;2023-03-01T02:38:55;5.10;83.20
36990;DHT22;22898;52.102;5.776;2023-03-01T02:41:22;5.10;83.10
36990;DHT22;22898;52.102;5.776;2023-03-01T02:43:48;5.10;83.30
36990;DHT22;22898;52.102;5.776;2023-03-01T02:46:18;5.10;83.30
36990;DHT22;22898;52.102;5.776;2023-03-01T02:48:47;5.10;83.00
36990;DHT22;22898;52.102;5.776;2023-03-01T02:51:41;5.10;83.10
36990;DHT22;22898;52.102;5.776;2023-03-01T02:57:05;5.00;83.60
36990;DHT22;22898;52.102;5.776;2023-03-01T02:59:33;4.90;83.60
36990;DHT22;22898;52.102;5.776;2023-03-01T03:02:07;4.90;83.80
36990;DHT22;22898;52.102;5.776;2023-03-01T03:04:41;4.90;83.70
36990;DHT22;22898;52.102;5.776;2023-03-01T03:07:07;5.00;83.60
36990;DHT22;22898;52.102;5.776;2023-03-01T03:09:32;5.10;83.00
36990;DHT22;22898;52.102;5.776;2023-03-01T03:11:58;5.00;83.00
36990;DHT22;22898;52.102;5.776;2023-03-01T03:14:23;5.00;83.40
36990;DHT22;22898;52.102;5.776;2023-03-01T03:16:50;4.90;83.60
36990;DHT22;22898;52.102;5.776;2023-03-01T03:19:17;4.90;83.70
36990;DHT22;22898;52.102;5.776;2023-03-01T03:21:43;4.90;83.80
36990;DHT22;22898;52.102;5.776;2023-03-01T03:24:09;4.90;83.80
36990;DHT22;22898;52.102;5.776;2023-03-01T03:26:34;4.90;83.80
36990;DHT22;22898;52.102;5.776;2023-03-01T03:29:00;4.90;83.60
36990;DHT22;22898;52.102;5.776;2023-03-01T03:31:26;5.00;83.30
36990;DHT22;22898;52.102;5.776;2023-03-01T03:33:52;5.00;83.30
36990;DHT22;22898;52.102;5.776;2023-03-01T03:36:20;4.90;83.30
36990;DHT22;22898;52.102;5.776;2023-03-01T03:38:46;4.90;83.50
36990;DHT22;22898;52.102;5.776;2023-03-01T03:41:12;4.80;83.70
36990;DHT22;22898;52.102;5.776;2023-03-01T03:43:39;4.80;83.80
36990;DHT22;22898;52.102;5.776;2023-03-01T03:46:06;4.70;83.90
36990;DHT22;22898;52.102;5.776;2023-03-01T03:48:42;4.70;84.10
36990;DHT22;22898;52.102;5.776;2023-03-01T03:51:11;4.70;84.10
36990;DHT22;22898;52.102;5.776;2023-03-01T03:53:37;4.70;84.00
36990;DHT22;22898;52.102;5.776;2023-03-01T03:56:03;4.70;84.10
36990;DHT22;22898;52.102;5.776;2023-03-01T03:58:29;4.80;84.10
36990;DHT22;22898;52.102;5.776;2023-03-01T04:00:56;4.80;84.10
36990;DHT22;22898;52.102;5.776;2023-03-01T04:03:23;4.80;83.90
36990;DHT22;22898;52.102;5.776;2023-03-01T04:05:49;4.90;83.30
36990;DHT22;22898;52.102;5.776;2023-03-01T04:08:16;4.90;83.00
36990;DHT22;22898;52.102;5.776;2023-03-01T04:10:46;4.80;83.60
36990;DHT22;22898;52.102;5.776;2023-03-01T04:13:15;4.70;83.60
36990;DHT22;22898;52.102;5.776;2023-03-01T04:15:41;4.70;84.70
36990;DHT22;22898;52.102;5.776;2023-03-01T04:18:14;4.60;84.10
36990;DHT22;22898;52.102;5.776;2023-03-01T04:20:40;4.60;83.80
36990;DHT22;22898;52.102;5.776;2023-03-01T04:23:07;4.60;84.10
36990;DHT22;22898;52.102;5.776;2023-03-01T04:25:47;4.50;84.10
36990;DHT22;22898;52.102;5.776;2023-03-01T04:28:29;4.50;84.50
36990;DHT22;22898;52.102;5.776;2023-03-01T04:30:55;4.50;84.60
36990;DHT22;22898;52.102;5.776;2023-03-01T04:33:21;4.60;84.40
36990;DHT22;22898;52.102;5.776;2023-03-01T04:35:48;4.50;84.20
36990;DHT22;22898;52.102;5.776;2023-03-01T04:38:20;4.60;83.80
36990;DHT22;22898;52.102;5.776;2023-03-01T04:40:46;4.70;83.50
36990;DHT22;22898;52.102;5.776;2023-03-01T04:43:12;4.60;83.60
36990;DHT22;22898;52.102;5.776;2023-03-01T04:45:42;4.50;84.20
36990;DHT22;22898;52.102;5.776;2023-03-01T04:48:08;4.40;84.80
36990;DHT22;22898;52.102;5.776;2023-03-01T04:50:33;4.40;85.20
36990;DHT22;22898;52.102;5.776;2023-03-01T04:52:59;4.30;85.10
36990;DHT22;22898;52.102;5.776;2023-03-01T04:55:28;4.40;85.10
36990;DHT22;22898;52.102;5.776;2023-03-01T04:57:55;4.40;85.00
36990;DHT22;22898;52.102;5.776;2023-03-01T05:00:21;4.40;85.00
36990;DHT22;22898;52.102;5.776;2023-03-01T05:02:52;4.50;84.80
36990;DHT22;22898;52.102;5.776;2023-03-01T05:05:38;4.50;84.70
36990;DHT22;22898;52.102;5.776;2023-03-01T05:08:07;4.50;84.80
36990;DHT22;22898;52.102;5.776;2023-03-01T05:10:34;4.40;85.00
36990;DHT22;22898;52.102;5.776;2023-03-01T05:13:01;4.40;85.10
36990;DHT22;22898;52.102;5.776;2023-03-01T05:15:29;4.40;85.10
36990;DHT22;22898;52.102;5.776;2023-03-01T05:17:58;4.40;85.10
36990;DHT22;22898;52.102;5.776;2023-03-01T05:20:25;4.60;84.40
36990;DHT22;22898;52.102;5.776;2023-03-01T05:22:52;4.60;84.10
36990;DHT22;22898;52.102;5.776;2023-03-01T05:25:20;4.60;84.40
36990;DHT22;22898;52.102;5.776;2023-03-01T05:27:46;4.50;84.70
36990;DHT22;22898;52.102;5.776;2023-03-01T05:30:12;4.50;84.70
36990;DHT22;22898;52.102;5.776;2023-03-01T05:32:41;4.40;84.90
36990;DHT22;22898;52.102;5.776;2023-03-01T05:35:08;4.40;85.20
36990;DHT22;22898;52.102;5.776;2023-03-01T05:37:34;4.50;84.80
36990;DHT22;22898;52.102;5.776;2023-03-01T05:40:01;4.50;84.40
36990;DHT22;22898;52.102;5.776;2023-03-01T05:42:26;4.50;84.40
36990;DHT22;22898;52.102;5.776;2023-03-01T05:44:52;4.30;84.60
36990;DHT22;22898;52.102;5.776;2023-03-01T05:47:17;4.20;85.40
36990;DHT22;22898;52.102;5.776;2023-03-01T05:49:43;4.20;85.60
36990;DHT22;22898;52.102;5.776;2023-03-01T05:52:08;4.20;85.70
36990;DHT22;22898;52.102;5.776;2023-03-01T05:54:34;4.10;85.50
36990;DHT22;22898;52.102;5.776;2023-03-01T05:56:59;4.10;85.80
36990;DHT22;22898;52.102;5.776;2023-03-01T05:59:25;4.10;85.50
36990;DHT22;22898;52.102;5.776;2023-03-01T06:01:50;4.10;85.60
36990;DHT22;22898;52.102;5.776;2023-03-01T06:04:16;4.10;85.50
36990;DHT22;22898;52.102;5.776;2023-03-01T06:06:41;4.10;85.50
36990;DHT22;22898;52.102;5.776;2023-03-01T06:09:07;4.10;85.50
36990;DHT22;22898;52.102;5.776;2023-03-01T06:11:35;4.00;85.50
36990;DHT22;22898;52.102;5.776;2023-03-01T06:14:01;4.00;85.80
36990;DHT22;22898;52.102;5.776;2023-03-01T06:16:26;4.00;85.70
36990;DHT22;22898;52.102;5.776;2023-03-01T06:18:52;4.00;85.80
36990;DHT22;22898;52.102;5.776;2023-03-01T06:21:17;4.10;85.70
36990;DHT22;22898;52.102;5.776;2023-03-01T06:23:43;4.20;85.50
36990;DHT22;22898;52.102;5.776;2023-03-01T06:26:09;4.20;85.40
36990;DHT22;22898;52.102;5.776;2023-03-01T06:28:35;4.30;85.10
36990;DHT22;22898;52.102;5.776;2023-03-01T06:31:01;4.30;85.20
36990;DHT22;22898;52.102;5.776;2023-03-01T06:33:27;4.30;85.10
36990;DHT22;22898;52.102;5.776;2023-03-01T06:35:55;4.40;85.30
36990;DHT22;22898;52.102;5.776;2023-03-01T06:38:22;4.30;85.30
36990;DHT22;22898;52.102;5.776;2023-03-01T06:40:52;4.30;85.40
36990;DHT22;22898;52.102;5.776;2023-03-01T06:43:19;4.30;85.80
36990;DHT22;22898;52.102;5.776;2023-03-01T06:45:45;4.30;86.00
36990;DHT22;22898;52.102;5.776;2023-03-01T06:48:11;4.40;85.80
36990;DHT22;22898;52.102;5.776;2023-03-01T06:50:37;4.40;86.00
36990;DHT22;22898;52.102;5.776;2023-03-01T06:53:03;4.30;86.30
36990;DHT22;22898;52.102;5.776;2023-03-01T06:55:29;4.30;86.60
36990;DHT22;22898;52.102;5.776;2023-03-01T06:57:56;4.50;85.80
36990;DHT22;22898;52.102;5.776;2023-03-01T07:00:22;4.60;85.50
36990;DHT22;22898;52.102;5.776;2023-03-01T07:02:48;4.60;85.20
36990;DHT22;22898;52.102;5.776;2023-03-01T07:05:14;4.60;85.50
36990;DHT22;22898;52.102;5.776;2023-03-01T07:07:39;4.60;86.10
36990;DHT22;22898;52.102;5.776;2023-03-01T07:10:05;4.60;86.40
36990;DHT22;22898;52.102;5.776;2023-03-01T07:12:32;4.40;87.70
36990;DHT22;22898;52.102;5.776;2023-03-01T07:14:58;4.30;88.30
36990;DHT22;22898;52.102;5.776;2023-03-01T07:17:23;4.40;88.80
36990;DHT22;22898;52.102;5.776;2023-03-01T07:19:49;4.70;88.50
36990;DHT22;22898;52.102;5.776;2023-03-01T07:22:14;4.90;88.00
36990;DHT22;22898;52.102;5.776;2023-03-01T07:24:41;5.00;87.90
36990;DHT22;22898;52.102;5.776;2023-03-01T07:27:06;5.00;88.00
36990;DHT22;22898;52.102;5.776;2023-03-01T07:29:32;5.20;88.40
36990;DHT22;22898;52.102;5.776;2023-03-01T07:31:58;5.30;88.30
36990;DHT22;22898;52.102;5.776;2023-03-01T07:34:23;5.50;87.50
36990;DHT22;22898;52.102;5.776;2023-03-01T07:36:49;5.80;86.70
36990;DHT22;22898;52.102;5.776;2023-03-01T07:39:15;5.80;86.70
36990;DHT22;22898;52.102;5.776;2023-03-01T07:41:40;5.80;86.70
36990;DHT22;22898;52.102;5.776;2023-03-01T07:44:06;5.80;87.50
36990;DHT22;22898;52.102;5.776;2023-03-01T07:46:32;6.00;87.30
36990;DHT22;22898;52.102;5.776;2023-03-01T07:48:57;6.20;87.20
36990;DHT22;22898;52.102;5.776;2023-03-01T07:51:23;6.30;87.30
36990;DHT22;22898;52.102;5.776;2023-03-01T07:53:49;6.30;87.70
36990;DHT22;22898;52.102;5.776;2023-03-01T07:56:16;6.40;87.60
36990;DHT22;22898;52.102;5.776;2023-03-01T07:58:43;6.50;88.80
36990;DHT22;22898;52.102;5.776;2023-03-01T08:01:12;6.70;88.00
36990;DHT22;22898;52.102;5.776;2023-03-01T08:03:38;6.80;87.90
36990;DHT22;22898;52.102;5.776;2023-03-01T08:06:06;7.10;87.60
36990;DHT22;22898;52.102;5.776;2023-03-01T08:08:32;7.30;85.80
36990;DHT22;22898;52.102;5.776;2023-03-01T08:11:00;7.30;86.10
36990;DHT22;22898;52.102;5.776;2023-03-01T08:13:26;7.50;86.30
36990;DHT22;22898;52.102;5.776;2023-03-01T08:15:52;7.80;85.20
36990;DHT22;22898;52.102;5.776;2023-03-01T08:18:20;8.00;84.80
36990;DHT22;22898;52.102;5.776;2023-03-01T08:20:45;8.10;84.60
36990;DHT22;22898;52.102;5.776;2023-03-01T08:23:11;8.30;84.00
36990;DHT22;22898;52.102;5.776;2023-03-01T08:25:37;8.50;84.10
36990;DHT22;22898;52.102;5.776;2023-03-01T08:28:03;8.60;83.30
36990;DHT22;22898;52.102;5.776;2023-03-01T08:30:29;8.60;82.50
36990;DHT22;22898;52.102;5.776;2023-03-01T08:32:54;8.70;82.80
36990;DHT22;22898;52.102;5.776;2023-03-01T08:35:20;8.90;82.30
36990;DHT22;22898;52.102;5.776;2023-03-01T08:37:46;9.00;82.00
36990;DHT22;22898;52.102;5.776;2023-03-01T08:40:13;9.00;82.20
36990;DHT22;22898;52.102;5.776;2023-03-01T08:42:40;9.10;81.30
36990;DHT22;22898;52.102;5.776;2023-03-01T08:45:08;9.10;82.00
36990;DHT22;22898;52.102;5.776;2023-03-01T08:47:34;9.20;81.90
36990;DHT22;22898;52.102;5.776;2023-03-01T08:50:00;9.30;81.90
36990;DHT22;22898;52.102;5.776;2023-03-01T08:52:26;9.40;82.00
36990;DHT22;22898;52.102;5.776;2023-03-01T08:54:52;9.50;81.60
36990;DHT22;22898;52.102;5.776;2023-03-01T08:57:18;9.70;81.10
36990;DHT22;22898;52.102;5.776;2023-03-01T08:59:43;9.90;80.40
36990;DHT22;22898;52.102;5.776;2023-03-01T09:02:13;10.10;79.70
36990;DHT22;22898;52.102;5.776;2023-03-01T09:04:39;10.20;79.90
36990;DHT22;22898;52.102;5.776;2023-03-01T09:07:05;9.90;80.00
36990;DHT22;22898;52.102;5.776;2023-03-01T09:09:31;9.60;80.30
36990;DHT22;22898;52.102;5.776;2023-03-01T09:11:57;9.70;79.40
36990;DHT22;22898;52.102;5.776;2023-03-01T09:14:22;9.90;79.10
36990;DHT22;22898;52.102;5.776;2023-03-01T09:16:48;9.90;78.20
36990;DHT22;22898;52.102;5.776;2023-03-01T09:19:14;9.60;80.00
36990;DHT22;22898;52.102;5.776;2023-03-01T09:21:40;9.50;81.10
36990;DHT22;22898;52.102;5.776;2023-03-01T09:24:11;9.60;78.20
36990;DHT22;22898;52.102;5.776;2023-03-01T09:26:37;9.70;79.10
36990;DHT22;22898;52.102;5.776;2023-03-01T09:29:03;9.40;77.60
36990;DHT22;22898;52.102;5.776;2023-03-01T09:31:28;9.10;79.30
36990;DHT22;22898;52.102;5.776;2023-03-01T09:33:54;8.70;80.20
36990;DHT22;22898;52.102;5.776;2023-03-01T09:36:22;8.10;80.10
36990;DHT22;22898;52.102;5.776;2023-03-01T09:38:48;8.20;79.80
36990;DHT22;22898;52.102;5.776;2023-03-01T09:43:49;8.00;81.00
36990;DHT22;22898;52.102;5.776;2023-03-01T09:46:21;8.00;81.20
36990;DHT22;22898;52.102;5.776;2023-03-01T09:49:09;8.00;79.70
36990;DHT22;22898;52.102;5.776;2023-03-01T09:51:36;7.80;81.10
36990;DHT22;22898;52.102;5.776;2023-03-01T09:54:04;7.80;80.50
36990;DHT22;22898;52.102;5.776;2023-03-01T09:56:36;8.00;79.10
36990;DHT22;22898;52.102;5.776;2023-03-01T09:59:23;8.10;79.60
36990;DHT22;22898;52.102;5.776;2023-03-01T10:01:59;8.00;77.90
36990;DHT22;22898;52.102;5.776;2023-03-01T10:04:43;8.10;79.60
36990;DHT22;22898;52.102;5.776;2023-03-01T10:09:41;8.30;78.30
36990;DHT22;22898;52.102;5.776;2023-03-01T10:12:18;8.80;77.20
36990;DHT22;22898;52.102;5.776;2023-03-01T10:15:14;9.00;75.90
36990;DHT22;22898;52.102;5.776;2023-03-01T10:17:48;9.20;74.50
36990;DHT22;22898;52.102;5.776;2023-03-01T10:20:23;9.30;74.70
36990;DHT22;22898;52.102;5.776;2023-03-01T10:22:50;9.00;75.70
36990;DHT22;22898;52.102;5.776;2023-03-01T10:25:33;8.90;75.40
36990;DHT22;22898;52.102;5.776;2023-03-01T10:28:31;9.20;75.00
36990;DHT22;22898;52.102;5.776;2023-03-01T10:31:07;9.70;74.80
36990;DHT22;22898;52.102;5.776;2023-03-01T10:33:38;9.70;74.00
36990;DHT22;22898;52.102;5.776;2023-03-01T10:36:05;9.90;74.50
36990;DHT22;22898;52.102;5.776;2023-03-01T10:38:51;9.90;72.20
36990;DHT22;22898;52.102;5.776;2023-03-01T10:41:19;10.00;72.20
36990;DHT22;22898;52.102;5.776;2023-03-01T10:43:49;10.10;72.60
36990;DHT22;22898;52.102;5.776;2023-03-01T10:46:28;9.60;72.40
36990;DHT22;22898;52.102;5.776;2023-03-01T10:49:21;10.10;72.00
36990;DHT22;22898;52.102;5.776;2023-03-01T10:51:51;10.40;71.00
36990;DHT22;22898;52.102;5.776;2023-03-01T10:54:29;9.80;69.70
36990;DHT22;22898;52.102;5.776;2023-03-01T10:57:00;9.50;70.70
36990;DHT22;22898;52.102;5.776;2023-03-01T11:02:17;9.60;72.00
36990;DHT22;22898;52.102;5.776;2023-03-01T11:04:57;9.60;72.40
36990;DHT22;22898;52.102;5.776;2023-03-01T11:07:23;10.00;70.00
36990;DHT22;22898;52.102;5.776;2023-03-01T11:09:49;9.90;69.90
36990;DHT22;22898;52.102;5.776;2023-03-01T11:12:16;9.90;69.70
36990;DHT22;22898;52.102;5.776;2023-03-01T11:14:51;10.10;69.20
36990;DHT22;22898;52.102;5.776;2023-03-01T11:17:29;10.20;69.70
36990;DHT22;22898;52.102;5.776;2023-03-01T11:20:15;9.60;71.40
36990;DHT22;22898;52.102;5.776;2023-03-01T11:22:53;9.50;71.90
36990;DHT22;22898;52.102;5.776;2023-03-01T11:25:55;9.80;71.40
36990;DHT22;22898;52.102;5.776;2023-03-01T11:28:17;10.10;70.30
36990;DHT22;22898;52.102;5.776;2023-03-01T11:36:29;10.50;69.10
36990;DHT22;22898;52.102;5.776;2023-03-01T11:38:55;10.70;69.80
36990;DHT22;22898;52.102;5.776;2023-03-01T11:41:25;10.80;67.30
36990;DHT22;22898;52.102;5.776;2023-03-01T11:44:09;10.80;67.80
36990;DHT22;22898;52.102;5.776;2023-03-01T11:47:02;10.50;67.50
36990;DHT22;22898;52.102;5.776;2023-03-01T11:52:13;10.10;67.40
36990;DHT22;22898;52.102;5.776;2023-03-01T11:57:47;10.20;66.80
36990;DHT22;22898;52.102;5.776;2023-03-01T12:00:36;10.30;66.80
36990;DHT22;22898;52.102;5.776;2023-03-01T12:06:16;10.20;66.90
36990;DHT22;22898;52.102;5.776;2023-03-01T12:17:06;10.20;67.80
36990;DHT22;22898;52.102;5.776;2023-03-01T12:28:52;10.20;67.90
36990;DHT22;22898;52.102;5.776;2023-03-01T12:35:09;10.80;67.00
36990;DHT22;22898;52.102;5.776;2023-03-01T12:51:01;10.70;65.70
36990;DHT22;22898;52.102;5.776;2023-03-01T12:53:36;10.90;65.80
36990;DHT22;22898;52.102;5.776;2023-03-01T12:56:07;10.10;65.50
36990;DHT22;22898;52.102;5.776;2023-03-01T13:09:41;10.60;65.80
36990;DHT22;22898;52.102;5.776;2023-03-01T13:17:51;10.70;65.70
36990;DHT22;22898;52.102;5.776;2023-03-01T13:20:20;10.90;65.80
36990;DHT22;22898;52.102;5.776;2023-03-01T13:22:47;11.30;64.40
36990;DHT22;22898;52.102;5.776;2023-03-01T13:25:19;11.50;63.70
36990;DHT22;22898;52.102;5.776;2023-03-01T13:27:46;11.40;64.50
36990;DHT22;22898;52.102;5.776;2023-03-01T13:36:00;10.80;65.40
36990;DHT22;22898;52.102;5.776;2023-03-01T13:41:12;11.10;65.70
36990;DHT22;22898;52.102;5.776;2023-03-01T13:43:40;11.30;64.40
36990;DHT22;22898;52.102;5.776;2023-03-01T13:46:18;11.40;64.60
36990;DHT22;22898;52.102;5.776;2023-03-01T13:48:50;11.40;64.20
36990;DHT22;22898;52.102;5.776;2023-03-01T13:51:15;11.30;64.50
36990;DHT22;22898;52.102;5.776;2023-03-01T13:53:45;11.50;65.00
36990;DHT22;22898;52.102;5.776;2023-03-01T13:56:15;11.60;64.90
36990;DHT22;22898;52.102;5.776;2023-03-01T13:59:04;11.90;63.90
36990;DHT22;22898;52.102;5.776;2023-03-01T14:01:33;11.70;62.20
36990;DHT22;22898;52.102;5.776;2023-03-01T14:04:00;11.20;63.00
36990;DHT22;22898;52.102;5.776;2023-03-01T14:06:28;10.90;64.70
36990;DHT22;22898;52.102;5.776;2023-03-01T14:09:22;10.80;64.40
36990;DHT22;22898;52.102;5.776;2023-03-01T14:15:27;10.60;65.00
36990;DHT22;22898;52.102;5.776;2023-03-01T14:18:08;11.20;63.60
36990;DHT22;22898;52.102;5.776;2023-03-01T14:20:40;11.20;61.30
36990;DHT22;22898;52.102;5.776;2023-03-01T14:23:15;11.10;62.70
36990;DHT22;22898;52.102;5.776;2023-03-01T14:25:54;11.10;63.10
36990;DHT22;22898;52.102;5.776;2023-03-01T14:28:28;11.20;63.00
36990;DHT22;22898;52.102;5.776;2023-03-01T14:30:56;11.10;63.50
36990;DHT22;22898;52.102;5.776;2023-03-01T14:38:34;11.10;66.10
36990;DHT22;22898;52.102;5.776;2023-03-01T14:41:09;11.00;65.20
36990;DHT22;22898;52.102;5.776;2023-03-01T14:43:38;11.30;63.60
36990;DHT22;22898;52.102;5.776;2023-03-01T14:46:05;11.30;63.90
36990;DHT22;22898;52.102;5.776;2023-03-01T14:48:31;11.40;63.10
36990;DHT22;22898;52.102;5.776;2023-03-01T14:50:57;11.50;64.10
36990;DHT22;22898;52.102;5.776;2023-03-01T14:53:25;11.40;61.70
36990;DHT22;22898;52.102;5.776;2023-03-01T14:55:54;11.30;63.30
36990;DHT22;22898;52.102;5.776;2023-03-01T14:58:23;11.50;63.30
36990;DHT22;22898;52.102;5.776;2023-03-01T15:01:00;11.70;60.70
36990;DHT22;22898;52.102;5.776;2023-03-01T15:03:34;11.90;61.40
36990;DHT22;22898;52.102;5.776;2023-03-01T15:06:01;11.70;61.90
36990;DHT22;22898;52.102;5.776;2023-03-01T15:08:28;11.30;64.20
36990;DHT22;22898;52.102;5.776;2023-03-01T15:10:59;11.30;63.90
36990;DHT22;22898;52.102;5.776;2023-03-01T15:13:30;11.40;63.20
36990;DHT22;22898;52.102;5.776;2023-03-01T15:16:07;11.70;63.30
36990;DHT22;22898;52.102;5.776;2023-03-01T15:18:35;11.80;63.40
36990;DHT22;22898;52.102;5.776;2023-03-01T15:21:36;11.80;63.30
36990;DHT22;22898;52.102;5.776;2023-03-01T15:26:49;12.00;63.90
36990;DHT22;22898;52.102;5.776;2023-03-01T15:29:24;12.10;63.30
36990;DHT22;22898;52.102;5.776;2023-03-01T15:32:28;12.00;62.80
36990;DHT22;22898;52.102;5.776;2023-03-01T15:34:51;12.00;63.20
36990;DHT22;22898;52.102;5.776;2023-03-01T15:37:39;12.00;62.90
36990;DHT22;22898;52.102;5.776;2023-03-01T15:40:25;11.70;64.60
36990;DHT22;22898;52.102;5.776;2023-03-01T15:42:57;11.90;64.40
36990;DHT22;22898;52.102;5.776;2023-03-01T15:45:25;11.70;64.50
36990;DHT22;22898;52.102;5.776;2023-03-01T15:47:57;11.50;66.10
36990;DHT22;22898;52.102;5.776;2023-03-01T15:50:28;11.90;65.90
36990;DHT22;22898;52.102;5.776;2023-03-01T15:52:55;12.20;65.60
36990;DHT22;22898;52.102;5.776;2023-03-01T15:55:25;12.20;65.60
36990;DHT22;22898;52.102;5.776;2023-03-01T16:00:28;12.60;66.30
36990;DHT22;22898;52.102;5.776;2023-03-01T16:02:54;12.70;65.50
36990;DHT22;22898;52.102;5.776;2023-03-01T16:05:23;12.70;65.70
36990;DHT22;22898;52.102;5.776;2023-03-01T16:07:49;12.50;66.00
36990;DHT22;22898;52.102;5.776;2023-03-01T16:10:15;11.80;67.90
36990;DHT22;22898;52.102;5.776;2023-03-01T16:12:41;11.40;68.70
36990;DHT22;22898;52.102;5.776;2023-03-01T16:15:30;11.60;68.40
36990;DHT22;22898;52.102;5.776;2023-03-01T16:17:57;11.80;67.50
36990;DHT22;22898;52.102;5.776;2023-03-01T16:20:26;11.90;67.20
36990;DHT22;22898;52.102;5.776;2023-03-01T16:22:52;11.20;67.60
36990;DHT22;22898;52.102;5.776;2023-03-01T16:25:19;10.90;69.70
36990;DHT22;22898;52.102;5.776;2023-03-01T16:27:46;10.80;71.20
36990;DHT22;22898;52.102;5.776;2023-03-01T16:30:14;11.50;69.40
36990;DHT22;22898;52.102;5.776;2023-03-01T16:32:44;12.30;68.60
36990;DHT22;22898;52.102;5.776;2023-03-01T16:35:12;12.50;66.60
36990;DHT22;22898;52.102;5.776;2023-03-01T16:37:38;12.20;66.50
36990;DHT22;22898;52.102;5.776;2023-03-01T16:40:05;11.80;67.30
36990;DHT22;22898;52.102;5.776;2023-03-01T16:42:35;11.80;67.70
36990;DHT22;22898;52.102;5.776;2023-03-01T16:45:02;11.60;68.10
36990;DHT22;22898;52.102;5.776;2023-03-01T16:47:28;11.60;68.20
36990;DHT22;22898;52.102;5.776;2023-03-01T16:49:54;11.40;67.80
36990;DHT22;22898;52.102;5.776;2023-03-01T16:52:21;11.20;68.30
36990;DHT22;22898;52.102;5.776;2023-03-01T16:54:47;11.30;68.90
36990;DHT22;22898;52.102;5.776;2023-03-01T16:57:13;11.40;68.60
36990;DHT22;22898;52.102;5.776;2023-03-01T16:59:39;11.50;68.50
36990;DHT22;22898;52.102;5.776;2023-03-01T17:02:05;11.50;68.00
36990;DHT22;22898;52.102;5.776;2023-03-01T17:04:31;11.30;68.90
36990;DHT22;22898;52.102;5.776;2023-03-01T17:06:57;11.40;68.90
36990;DHT22;22898;52.102;5.776;2023-03-01T17:09:22;11.70;68.50
36990;DHT22;22898;52.102;5.776;2023-03-01T17:11:49;11.60;68.40
36990;DHT22;22898;52.102;5.776;2023-03-01T17:14:15;11.70;68.80
36990;DHT22;22898;52.102;5.776;2023-03-01T17:16:41;11.90;68.10
36990;DHT22;22898;52.102;5.776;2023-03-01T17:19:07;11.90;67.70
36990;DHT22;22898;52.102;5.776;2023-03-01T17:21:33;11.90;68.00
36990;DHT22;22898;52.102;5.776;2023-03-01T17:23:58;11.90;67.80
36990;DHT22;22898;52.102;5.776;2023-03-01T17:26:24;11.90;68.20
36990;DHT22;22898;52.102;5.776;2023-03-01T17:28:50;11.90;68.30
36990;DHT22;22898;52.102;5.776;2023-03-01T17:31:17;12.00;68.10
36990;DHT22;22898;52.102;5.776;2023-03-01T17:33:42;12.20;67.90